sensor_id;sensor_type;location;lat;lon;timestamp;pressure;altitude;pressure_sealevel;temperature;humidity
71126;BME280;58785;55.566;38.058;2023-03-29T00:01:25;99488.34;;;5.22;77.87
71126;BME280;58785;55.566;38.058;2023-03-29T00:03:58;99484.03;;;5.21;77.38
71126;BME280;58785;55.566;38.058;2023-03-29T00:06:25;99476.88;;;5.12;77.85
71126;BME280;58785;55.566;38.058;2023-03-29T00:08:58;99480.22;;;5.14;78.04
71126;BME280;58785;55.566;38.058;2023-03-29T00:11:24;99469.59;;;5.04;78.04
71126;BME280;58785;55.566;38.058;2023-03-29T00:13:50;99474.59;;;5.07;78.10
71126;BME280;58785;55.566;38.058;2023-03-29T00:16:16;99475.56;;;5.06;78.30
71126;BME280;58785;55.566;38.058;2023-03-29T00:18:42;99470.44;;;5.05;78.05
71126;BME280;58785;55.566;38.058;2023-03-29T00:21:08;99468.50;;;5.07;77.84
71126;BME280;58785;55.566;38.058;2023-03-29T00:23:34;99463.91;;;5.09;77.91
71126;BME280;58785;55.566;38.058;2023-03-29T00:26:00;99459.59;;;5.08;78.07
71126;BME280;58785;55.566;38.058;2023-03-29T00:28:26;99464.75;;;5.09;77.59
71126;BME280;58785;55.566;38.058;2023-03-29T00:30:51;99457.22;;;5.05;78.07
71126;BME280;58785;55.566;38.058;2023-03-29T00:33:18;99451.47;;;5.00;77.78
71126;BME280;58785;55.566;38.058;2023-03-29T00:35:45;99466.41;;;5.10;77.98
71126;BME280;58785;55.566;38.058;2023-03-29T00:38:13;99466.31;;;5.12;77.75
71126;BME280;58785;55.566;38.058;2023-03-29T00:40:41;99473.97;;;5.15;77.96
71126;BME280;58785;55.566;38.058;2023-03-29T00:43:10;99461.88;;;5.12;77.60
71126;BME280;58785;55.566;38.058;2023-03-29T00:45:36;99452.00;;;5.14;77.86
71126;BME280;58785;55.566;38.058;2023-03-29T00:48:04;99456.19;;;5.17;78.03
71126;BME280;58785;55.566;38.058;2023-03-29T00:50:54;99458.44;;;5.22;77.83
71126;BME280;58785;55.566;38.058;2023-03-29T00:53:26;99457.84;;;5.18;77.87
71126;BME280;58785;55.566;38.058;2023-03-29T00:55:58;99454.69;;;5.24;77.81
71126;BME280;58785;55.566;38.058;2023-03-29T01:01:16;99458.50;;;5.31;77.81
71126;BME280;58785;55.566;38.058;2023-03-29T01:04:06;99453.50;;;5.38;77.10
71126;BME280;58785;55.566;38.058;2023-03-29T01:06:36;99454.34;;;5.38;77.58
71126;BME280;58785;55.566;38.058;2023-03-29T01:09:08;99458.44;;;5.42;77.22
71126;BME280;58785;55.566;38.058;2023-03-29T01:11:40;99452.72;;;5.47;77.36
71126;BME280;58785;55.566;38.058;2023-03-29T01:14:19;99441.88;;;5.50;77.33
71126;BME280;58785;55.566;38.058;2023-03-29T01:16:47;99433.38;;;5.46;77.33
71126;BME280;58785;55.566;38.058;2023-03-29T01:19:17;99437.34;;;5.52;76.88
71126;BME280;58785;55.566;38.058;2023-03-29T01:21:52;99432.03;;;5.52;76.73
71126;BME280;58785;55.566;38.058;2023-03-29T01:27:19;99428.97;;;5.57;77.15
71126;BME280;58785;55.566;38.058;2023-03-29T01:29:59;99419.25;;;5.57;76.72
71126;BME280;58785;55.566;38.058;2023-03-29T01:32:32;99420.66;;;5.61;76.97
71126;BME280;58785;55.566;38.058;2023-03-29T01:35:23;99409.97;;;5.63;76.80
71126;BME280;58785;55.566;38.058;2023-03-29T01:38:20;99407.03;;;5.66;76.92
71126;BME280;58785;55.566;38.058;2023-03-29T01:40:48;99411.06;;;5.70;76.61
71126;BME280;58785;55.566;38.058;2023-03-29T01:48:19;99403.91;;;5.82;76.67
71126;BME280;58785;55.566;38.058;2023-03-29T01:50:50;99388.97;;;5.81;76.57
71126;BME280;58785;55.566;38.058;2023-03-29T01:56:07;99386.63;;;5.87;76.61
71126;BME280;58785;55.566;38.058;2023-03-29T01:58:42;99391.69;;;5.90;76.21
71126;BME280;58785;55.566;38.058;2023-03-29T02:01:13;99376.31;;;5.84;76.22
71126;BME280;58785;55.566;38.058;2023-03-29T02:03:46;99377.50;;;5.91;76.03
71126;BME280;58785;55.566;38.058;2023-03-29T02:06:18;99369.56;;;5.91;76.11
71126;BME280;58785;55.566;38.058;2023-03-29T02:08:46;99384.56;;;5.91;76.41
71126;BME280;58785;55.566;38.058;2023-03-29T02:11:13;99374.00;;;5.91;76.10
71126;BME280;58785;55.566;38.058;2023-03-29T02:13:38;99372.22;;;5.91;76.06
71126;BME280;58785;55.566;38.058;2023-03-29T02:16:11;99364.97;;;5.93;75.99
71126;BME280;58785;55.566;38.058;2023-03-29T02:18:42;99362.47;;;5.92;75.77
71126;BME280;58785;55.566;38.058;2023-03-29T02:21:15;99369.97;;;5.96;75.83
71126;BME280;58785;55.566;38.058;2023-03-29T02:23:46;99364.00;;;5.94;75.77
71126;BME280;58785;55.566;38.058;2023-03-29T02:26:13;99369.56;;;6.01;75.79
71126;BME280;58785;55.566;38.058;2023-03-29T02:28:41;99367.03;;;5.99;75.88
71126;BME280;58785;55.566;38.058;2023-03-29T02:34:19;99359.84;;;6.01;76.37
71126;BME280;58785;55.566;38.058;2023-03-29T02:36:48;99348.81;;;5.96;76.26
71126;BME280;58785;55.566;38.058;2023-03-29T02:39:16;99345.31;;;5.96;75.69
71126;BME280;58785;55.566;38.058;2023-03-29T02:41:45;99362.34;;;6.03;76.02
71126;BME280;58785;55.566;38.058;2023-03-29T02:44:15;99353.56;;;6.02;75.62
71126;BME280;58785;55.566;38.058;2023-03-29T02:46:43;99349.09;;;6.03;76.01
71126;BME280;58785;55.566;38.058;2023-03-29T02:49:11;99351.47;;;6.06;75.38
71126;BME280;58785;55.566;38.058;2023-03-29T02:51:37;99339.34;;;6.03;76.07
71126;BME280;58785;55.566;38.058;2023-03-29T02:54:08;99337.69;;;6.02;75.54
71126;BME280;58785;55.566;38.058;2023-03-29T02:56:41;99346.59;;;6.01;75.86
71126;BME280;58785;55.566;38.058;2023-03-29T02:59:08;99342.25;;;6.00;75.28
71126;BME280;58785;55.566;38.058;2023-03-29T03:01:34;99331.13;;;5.97;75.31
71126;BME280;58785;55.566;38.058;2023-03-29T03:04:01;99339.59;;;6.00;75.93
71126;BME280;58785;55.566;38.058;2023-03-29T03:06:28;99330.28;;;5.96;76.26
71126;BME280;58785;55.566;38.058;2023-03-29T03:08:53;99341.31;;;6.01;75.89
71126;BME280;58785;55.566;38.058;2023-03-29T03:11:19;99341.31;;;6.01;75.95
71126;BME280;58785;55.566;38.058;2023-03-29T03:13:45;99326.66;;;5.97;76.02
71126;BME280;58785;55.566;38.058;2023-03-29T03:16:11;99344.78;;;6.02;75.32
71126;BME280;58785;55.566;38.058;2023-03-29T03:18:36;99327.63;;;5.96;75.51
71126;BME280;58785;55.566;38.058;2023-03-29T03:21:02;99336.84;;;6.02;75.48
71126;BME280;58785;55.566;38.058;2023-03-29T03:23:28;99337.41;;;6.05;75.97
71126;BME280;58785;55.566;38.058;2023-03-29T03:25:54;99333.63;;;6.08;75.39
71126;BME280;58785;55.566;38.058;2023-03-29T03:28:21;99340.34;;;6.12;75.53
71126;BME280;58785;55.566;38.058;2023-03-29T03:30:48;99345.50;;;6.14;75.32
71126;BME280;58785;55.566;38.058;2023-03-29T03:33:14;99342.72;;;6.15;75.15
71126;BME280;58785;55.566;38.058;2023-03-29T03:35:41;99338.78;;;6.19;75.43
71126;BME280;58785;55.566;38.058;2023-03-29T03:38:07;99341.19;;;6.22;75.24
71126;BME280;58785;55.566;38.058;2023-03-29T03:40:33;99329.03;;;6.20;75.00
71126;BME280;58785;55.566;38.058;2023-03-29T03:42:59;99325.16;;;6.24;75.27
71126;BME280;58785;55.566;38.058;2023-03-29T03:45:25;99333.94;;;6.24;75.48
71126;BME280;58785;55.566;38.058;2023-03-29T03:47:51;99342.03;;;6.32;75.57
71126;BME280;58785;55.566;38.058;2023-03-29T03:50:17;99327.66;;;6.25;75.59
71126;BME280;58785;55.566;38.058;2023-03-29T03:52:43;99320.13;;;6.30;74.89
71126;BME280;58785;55.566;38.058;2023-03-29T03:55:09;99331.16;;;6.36;75.03
71126;BME280;58785;55.566;38.058;2023-03-29T03:57:35;99335.75;;;6.43;74.88
71126;BME280;58785;55.566;38.058;2023-03-29T04:00:05;99323.50;;;6.42;74.85
71126;BME280;58785;55.566;38.058;2023-03-29T04:02:46;99320.41;;;6.47;75.13
71126;BME280;58785;55.566;38.058;2023-03-29T04:05:13;99325.00;;;6.54;74.87
71126;BME280;58785;55.566;38.058;2023-03-29T04:07:39;99330.69;;;6.59;74.56
71126;BME280;58785;55.566;38.058;2023-03-29T04:10:06;99326.22;;;6.60;74.61
71126;BME280;58785;55.566;38.058;2023-03-29T04:12:34;99324.84;;;6.66;74.50
71126;BME280;58785;55.566;38.058;2023-03-29T04:15:00;99313.72;;;6.62;74.60
71126;BME280;58785;55.566;38.058;2023-03-29T04:17:26;99325.13;;;6.72;74.12
71126;BME280;58785;55.566;38.058;2023-03-29T04:19:52;99313.53;;;6.73;74.14
71126;BME280;58785;55.566;38.058;2023-03-29T04:22:17;99318.81;;;6.83;73.93
71126;BME280;58785;55.566;38.058;2023-03-29T04:24:43;99312.41;;;6.85;74.13
71126;BME280;58785;55.566;38.058;2023-03-29T04:27:09;99311.41;;;6.86;74.02
71126;BME280;58785;55.566;38.058;2023-03-29T04:29:35;99298.00;;;6.88;73.36
71126;BME280;58785;55.566;38.058;2023-03-29T04:32:00;99292.72;;;6.88;73.37
71126;BME280;58785;55.566;38.058;2023-03-29T04:34:26;99295.94;;;6.91;73.30
71126;BME280;58785;55.566;38.058;2023-03-29T04:36:52;99301.47;;;6.98;73.26
71126;BME280;58785;55.566;38.058;2023-03-29T04:39:17;99304.69;;;7.02;73.64
71126;BME280;58785;55.566;38.058;2023-03-29T04:41:43;99294.22;;;7.00;73.45
71126;BME280;58785;55.566;38.058;2023-03-29T04:44:10;99305.59;;;7.10;73.39
71126;BME280;58785;55.566;38.058;2023-03-29T04:46:36;99302.53;;;7.15;72.94
71126;BME280;58785;55.566;38.058;2023-03-29T04:49:07;99297.63;;;7.20;72.51
71126;BME280;58785;55.566;38.058;2023-03-29T04:51:32;99299.00;;;7.24;72.65
71126;BME280;58785;55.566;38.058;2023-03-29T04:53:58;99297.72;;;7.28;72.70
71126;BME280;58785;55.566;38.058;2023-03-29T04:56:24;99303.28;;;7.35;72.99
71126;BME280;58785;55.566;38.058;2023-03-29T04:58:50;99282.75;;;7.37;71.96
71126;BME280;58785;55.566;38.058;2023-03-29T05:01:16;99294.47;;;7.44;72.54
71126;BME280;58785;55.566;38.058;2023-03-29T05:03:42;99288.84;;;7.47;72.48
71126;BME280;58785;55.566;38.058;2023-03-29T05:06:09;99270.84;;;7.41;72.49
71126;BME280;58785;55.566;38.058;2023-03-29T05:08:37;99290.91;;;7.53;71.78
71126;BME280;58785;55.566;38.058;2023-03-29T05:11:08;99283.13;;;7.52;72.09
71126;BME280;58785;55.566;38.058;2023-03-29T05:13:35;99298.56;;;7.56;71.99
71126;BME280;58785;55.566;38.058;2023-03-29T05:16:02;99294.09;;;7.57;72.53
71126;BME280;58785;55.566;38.058;2023-03-29T05:18:29;99288.25;;;7.53;71.81
71126;BME280;58785;55.566;38.058;2023-03-29T05:20:56;99294.78;;;7.59;72.09
71126;BME280;58785;55.566;38.058;2023-03-29T05:23:22;99296.28;;;7.61;72.05
71126;BME280;58785;55.566;38.058;2023-03-29T05:25:48;99291.69;;;7.63;71.88
71126;BME280;58785;55.566;38.058;2023-03-29T05:28:15;99289.56;;;7.67;71.69
71126;BME280;58785;55.566;38.058;2023-03-29T05:30:41;99293.97;;;7.76;71.62
71126;BME280;58785;55.566;38.058;2023-03-29T05:33:07;99285.56;;;7.81;71.29
71126;BME280;58785;55.566;38.058;2023-03-29T05:35:33;99282.31;;;7.87;70.85
71126;BME280;58785;55.566;38.058;2023-03-29T05:38:00;99283.38;;;7.94;71.30
71126;BME280;58785;55.566;38.058;2023-03-29T05:40:27;99292.94;;;8.04;70.64
71126;BME280;58785;55.566;38.058;2023-03-29T05:42:53;99291.22;;;8.13;70.87
71126;BME280;58785;55.566;38.058;2023-03-29T05:45:19;99299.38;;;8.20;70.59
71126;BME280;58785;55.566;38.058;2023-03-29T05:47:44;99287.63;;;8.22;70.67
71126;BME280;58785;55.566;38.058;2023-03-29T05:50:11;99283.84;;;8.25;70.42
71126;BME280;58785;55.566;38.058;2023-03-29T05:52:37;99294.09;;;8.38;70.32
71126;BME280;58785;55.566;38.058;2023-03-29T05:55:03;99294.50;;;8.43;69.89
71126;BME280;58785;55.566;38.058;2023-03-29T05:57:30;99298.34;;;8.48;69.32
71126;BME280;58785;55.566;38.058;2023-03-29T05:59:56;99290.91;;;8.52;69.13
71126;BME280;58785;55.566;38.058;2023-03-29T06:02:22;99291.41;;;8.55;69.35
71126;BME280;58785;55.566;38.058;2023-03-29T06:04:48;99293.75;;;8.58;69.29
71126;BME280;58785;55.566;38.058;2023-03-29T06:07:14;99286.47;;;8.60;69.31
71126;BME280;58785;55.566;38.058;2023-03-29T06:09:40;99283.44;;;8.55;68.86
71126;BME280;58785;55.566;38.058;2023-03-29T06:12:07;99285.63;;;8.60;69.22
71126;BME280;58785;55.566;38.058;2023-03-29T06:14:33;99291.00;;;8.68;69.06
71126;BME280;58785;55.566;38.058;2023-03-29T06:16:59;99280.88;;;8.72;68.90
71126;BME280;58785;55.566;38.058;2023-03-29T06:19:26;99287.06;;;8.72;68.34
71126;BME280;58785;55.566;38.058;2023-03-29T06:21:52;99282.59;;;8.73;68.68
71126;BME280;58785;55.566;38.058;2023-03-29T06:24:18;99282.03;;;8.69;68.59
71126;BME280;58785;55.566;38.058;2023-03-29T06:26:45;99282.88;;;8.70;68.50
71126;BME280;58785;55.566;38.058;2023-03-29T06:29:11;99289.03;;;8.70;68.20
71126;BME280;58785;55.566;38.058;2023-03-29T06:31:37;99282.25;;;8.76;68.18
71126;BME280;58785;55.566;38.058;2023-03-29T06:34:03;99273.81;;;8.80;68.30
71126;BME280;58785;55.566;38.058;2023-03-29T06:36:29;99273.84;;;8.88;68.30
71126;BME280;58785;55.566;38.058;2023-03-29T06:38:56;99277.19;;;8.90;67.77
71126;BME280;58785;55.566;38.058;2023-03-29T06:41:22;99278.72;;;8.93;67.81
71126;BME280;58785;55.566;38.058;2023-03-29T06:43:48;99267.09;;;8.94;67.74
71126;BME280;58785;55.566;38.058;2023-03-29T06:46:13;99272.09;;;8.97;67.87
71126;BME280;58785;55.566;38.058;2023-03-29T06:48:40;99264.72;;;8.91;67.59
71126;BME280;58785;55.566;38.058;2023-03-29T06:51:06;99276.72;;;8.95;67.74
71126;BME280;58785;55.566;38.058;2023-03-29T06:53:32;99271.19;;;8.88;67.46
71126;BME280;58785;55.566;38.058;2023-03-29T06:55:58;99268.03;;;8.85;67.62
71126;BME280;58785;55.566;38.058;2023-03-29T06:58:24;99273.66;;;8.82;67.89
71126;BME280;58785;55.566;38.058;2023-03-29T07:00:50;99264.72;;;8.83;68.20
71126;BME280;58785;55.566;38.058;2023-03-29T07:03:16;99267.91;;;8.95;67.51
71126;BME280;58785;55.566;38.058;2023-03-29T07:05:48;99271.59;;;9.02;67.58
71126;BME280;58785;55.566;38.058;2023-03-29T07:08:16;99266.16;;;9.03;67.78
71126;BME280;58785;55.566;38.058;2023-03-29T07:10:45;99266.75;;;8.97;67.85
71126;BME280;58785;55.566;38.058;2023-03-29T07:13:12;99255.56;;;8.85;68.28
71126;BME280;58785;55.566;38.058;2023-03-29T07:15:40;99259.84;;;8.78;68.93
71126;BME280;58785;55.566;38.058;2023-03-29T07:18:07;99256.84;;;8.73;69.00
71126;BME280;58785;55.566;38.058;2023-03-29T07:20:32;99258.78;;;8.71;69.66
71126;BME280;58785;55.566;38.058;2023-03-29T07:22:58;99255.16;;;8.72;69.46
71126;BME280;58785;55.566;38.058;2023-03-29T07:25:25;99262.50;;;8.78;69.60
71126;BME280;58785;55.566;38.058;2023-03-29T07:27:52;99263.72;;;8.84;69.57
71126;BME280;58785;55.566;38.058;2023-03-29T07:30:23;99259.28;;;8.92;69.27
71126;BME280;58785;55.566;38.058;2023-03-29T07:32:50;99253.84;;;9.02;69.35
71126;BME280;58785;55.566;38.058;2023-03-29T07:35:17;99256.84;;;9.07;68.54
71126;BME280;58785;55.566;38.058;2023-03-29T07:37:44;99255.69;;;9.10;69.08
71126;BME280;58785;55.566;38.058;2023-03-29T07:40:12;99255.22;;;9.14;68.71
71126;BME280;58785;55.566;38.058;2023-03-29T07:43:00;99253.56;;;9.21;68.68
71126;BME280;58785;55.566;38.058;2023-03-29T07:45:31;99264.41;;;9.28;68.07
71126;BME280;58785;55.566;38.058;2023-03-29T07:47:58;99259.78;;;9.30;68.20
71126;BME280;58785;55.566;38.058;2023-03-29T07:50:24;99251.50;;;9.33;67.92
71126;BME280;58785;55.566;38.058;2023-03-29T07:52:50;99262.31;;;9.40;67.93
71126;BME280;58785;55.566;38.058;2023-03-29T07:55:16;99260.47;;;9.40;67.85
71126;BME280;58785;55.566;38.058;2023-03-29T07:57:42;99251.00;;;9.38;67.48
71126;BME280;58785;55.566;38.058;2023-03-29T08:00:10;99259.16;;;9.44;68.23
71126;BME280;58785;55.566;38.058;2023-03-29T08:02:41;99249.03;;;9.48;67.60
71126;BME280;58785;55.566;38.058;2023-03-29T08:05:09;99253.22;;;9.59;67.62
71126;BME280;58785;55.566;38.058;2023-03-29T08:07:35;99249.56;;;9.60;67.88
71126;BME280;58785;55.566;38.058;2023-03-29T08:10:00;99248.75;;;9.67;67.70
71126;BME280;58785;55.566;38.058;2023-03-29T08:12:26;99264.59;;;9.85;67.46
71126;BME280;58785;55.566;38.058;2023-03-29T08:14:51;99254.81;;;9.94;67.03
71126;BME280;58785;55.566;38.058;2023-03-29T08:17:17;99259.44;;;10.00;67.23
71126;BME280;58785;55.566;38.058;2023-03-29T08:19:42;99239.81;;;10.01;66.57
71126;BME280;58785;55.566;38.058;2023-03-29T08:22:08;99252.66;;;10.05;66.81
71126;BME280;58785;55.566;38.058;2023-03-29T08:24:34;99247.66;;;10.02;66.75
71126;BME280;58785;55.566;38.058;2023-03-29T08:26:59;99251.47;;;10.00;66.00
71126;BME280;58785;55.566;38.058;2023-03-29T08:29:25;99244.31;;;9.92;66.17
71126;BME280;58785;55.566;38.058;2023-03-29T08:31:51;99252.63;;;9.89;66.73
71126;BME280;58785;55.566;38.058;2023-03-29T08:34:17;99258.09;;;9.88;66.69
71126;BME280;58785;55.566;38.058;2023-03-29T08:36:43;99238.97;;;9.76;66.62
71126;BME280;58785;55.566;38.058;2023-03-29T08:39:09;99246.28;;;9.74;67.77
71126;BME280;58785;55.566;38.058;2023-03-29T08:49:40;99235.75;;;9.56;69.48
71126;BME280;58785;55.566;38.058;2023-03-29T08:52:40;99232.91;;;9.49;70.16
71126;BME280;58785;55.566;38.058;2023-03-29T08:55:17;99235.38;;;9.43;70.39
71126;BME280;58785;55.566;38.058;2023-03-29T08:57:49;99234.72;;;9.49;70.62
71126;BME280;58785;55.566;38.058;2023-03-29T09:00:23;99221.59;;;9.47;70.52
71126;BME280;58785;55.566;38.058;2023-03-29T09:02:53;99233.09;;;9.56;70.70
71126;BME280;58785;55.566;38.058;2023-03-29T09:05:46;99218.44;;;9.60;71.10
71126;BME280;58785;55.566;38.058;2023-03-29T09:08:14;99230.94;;;9.68;71.02
71126;BME280;58785;55.566;38.058;2023-03-29T09:22:05;99229.63;;;9.64;70.59
71126;BME280;58785;55.566;38.058;2023-03-29T09:32:32;99230.09;;;9.59;71.34
71126;BME280;58785;55.566;38.058;2023-03-29T09:35:32;99238.91;;;9.60;71.62
71126;BME280;58785;55.566;38.058;2023-03-29T09:38:01;99257.22;;;9.55;71.76
71126;BME280;58785;55.566;38.058;2023-03-29T09:40:33;99243.53;;;9.49;71.44
71126;BME280;58785;55.566;38.058;2023-03-29T09:43:03;99233.41;;;9.45;71.93
71126;BME280;58785;55.566;38.058;2023-03-29T09:45:37;99240.53;;;9.44;71.96
71126;BME280;58785;55.566;38.058;2023-03-29T09:48:11;99241.00;;;9.40;71.92
71126;BME280;58785;55.566;38.058;2023-03-29T09:50:48;99246.84;;;9.35;72.28
71126;BME280;58785;55.566;38.058;2023-03-29T09:53:17;99249.13;;;9.30;72.42
71126;BME280;58785;55.566;38.058;2023-03-29T09:55:45;99244.97;;;9.28;73.01
71126;BME280;58785;55.566;38.058;2023-03-29T09:58:14;99250.56;;;9.16;72.82
71126;BME280;58785;55.566;38.058;2023-03-29T10:00:41;99258.06;;;9.21;73.66
71126;BME280;58785;55.566;38.058;2023-03-29T10:03:07;99258.41;;;9.18;73.79
71126;BME280;58785;55.566;38.058;2023-03-29T10:05:35;99245.91;;;9.18;73.74
71126;BME280;58785;55.566;38.058;2023-03-29T10:08:17;99244.09;;;9.19;74.33
71126;BME280;58785;55.566;38.058;2023-03-29T10:10:44;99251.41;;;9.17;74.35
71126;BME280;58785;55.566;38.058;2023-03-29T10:13:26;99252.41;;;9.16;74.71
71126;BME280;58785;55.566;38.058;2023-03-29T10:18:30;99249.75;;;9.16;75.31
71126;BME280;58785;55.566;38.058;2023-03-29T10:21:02;99250.91;;;9.13;74.90
71126;BME280;58785;55.566;38.058;2023-03-29T10:23:31;99254.91;;;9.17;75.25
71126;BME280;58785;55.566;38.058;2023-03-29T10:25:57;99249.75;;;9.16;75.40
71126;BME280;58785;55.566;38.058;2023-03-29T10:28:23;99248.25;;;9.21;75.77
71126;BME280;58785;55.566;38.058;2023-03-29T10:30:55;99246.63;;;9.29;75.41
71126;BME280;58785;55.566;38.058;2023-03-29T10:33:23;99251.78;;;9.30;75.45
71126;BME280;58785;55.566;38.058;2023-03-29T10:35:49;99241.47;;;9.27;75.47
71126;BME280;58785;55.566;38.058;2023-03-29T10:38:18;99240.97;;;9.24;75.88
71126;BME280;58785;55.566;38.058;2023-03-29T10:40:52;99243.31;;;9.27;76.42
71126;BME280;58785;55.566;38.058;2023-03-29T10:45:48;99248.41;;;9.12;77.13
71126;BME280;58785;55.566;38.058;2023-03-29T10:48:15;99230.41;;;9.06;76.96
71126;BME280;58785;55.566;38.058;2023-03-29T10:50:48;99239.38;;;9.05;77.10
71126;BME280;58785;55.566;38.058;2023-03-29T10:53:35;99242.88;;;9.05;77.25
71126;BME280;58785;55.566;38.058;2023-03-29T11:10:40;99247.03;;;8.74;79.18
71126;BME280;58785;55.566;38.058;2023-03-29T11:18:56;99237.41;;;8.73;78.99
71126;BME280;58785;55.566;38.058;2023-03-29T11:27:44;99245.78;;;8.60;80.05
71126;BME280;58785;55.566;38.058;2023-03-29T11:30:27;99234.97;;;8.61;79.92
71126;BME280;58785;55.566;38.058;2023-03-29T11:33:04;99242.13;;;8.61;79.99
71126;BME280;58785;55.566;38.058;2023-03-29T11:35:44;99246.59;;;8.60;79.93
71126;BME280;58785;55.566;38.058;2023-03-29T11:41:29;99251.06;;;8.52;80.32
71126;BME280;58785;55.566;38.058;2023-03-29T11:46:28;99249.91;;;8.54;80.18
71126;BME280;58785;55.566;38.058;2023-03-29T11:49:16;99255.00;;;8.48;81.12
71126;BME280;58785;55.566;38.058;2023-03-29T11:51:51;99248.50;;;8.42;80.43
71126;BME280;58785;55.566;38.058;2023-03-29T11:54:54;99264.44;;;8.42;81.37
71126;BME280;58785;55.566;38.058;2023-03-29T11:57:29;99266.53;;;8.39;80.67
71126;BME280;58785;55.566;38.058;2023-03-29T12:00:04;99269.19;;;8.39;80.78
71126;BME280;58785;55.566;38.058;2023-03-29T12:03:29;99261.53;;;8.35;80.71
71126;BME280;58785;55.566;38.058;2023-03-29T12:05:34;99262.22;;;8.38;80.87
71126;BME280;58785;55.566;38.058;2023-03-29T12:08:05;99255.53;;;8.33;80.65
71126;BME280;58785;55.566;38.058;2023-03-29T12:10:39;99273.00;;;8.36;81.52
71126;BME280;58785;55.566;38.058;2023-03-29T12:15:43;99272.16;;;8.35;81.39
71126;BME280;58785;55.566;38.058;2023-03-29T12:21:25;99269.09;;;8.30;81.55
71126;BME280;58785;55.566;38.058;2023-03-29T12:23:53;99284.91;;;8.32;81.29
71126;BME280;58785;55.566;38.058;2023-03-29T12:26:32;99271.47;;;8.33;81.48
71126;BME280;58785;55.566;38.058;2023-03-29T12:31:57;99279.16;;;8.37;81.62
71126;BME280;58785;55.566;38.058;2023-03-29T12:35:10;99273.38;;;8.41;81.29
71126;BME280;58785;55.566;38.058;2023-03-29T12:40:44;99292.78;;;8.42;81.49
71126;BME280;58785;55.566;38.058;2023-03-29T12:43:32;99282.31;;;8.40;81.68
71126;BME280;58785;55.566;38.058;2023-03-29T12:46:26;99288.09;;;8.35;81.54
71126;BME280;58785;55.566;38.058;2023-03-29T12:48:56;99282.25;;;8.32;81.40
71126;BME280;58785;55.566;38.058;2023-03-29T12:51:34;99292.00;;;8.31;81.60
71126;BME280;58785;55.566;38.058;2023-03-29T12:54:21;99293.00;;;8.30;81.84
71126;BME280;58785;55.566;38.058;2023-03-29T13:02:45;99283.69;;;8.26;81.27
71126;BME280;58785;55.566;38.058;2023-03-29T13:04:52;99289.66;;;8.28;81.68
71126;BME280;58785;55.566;38.058;2023-03-29T13:12:24;99281.03;;;8.26;81.42
71126;BME280;58785;55.566;38.058;2023-03-29T13:15:05;99305.44;;;8.30;81.01
71126;BME280;58785;55.566;38.058;2023-03-29T13:23:39;99291.50;;;8.28;81.58
71126;BME280;58785;55.566;38.058;2023-03-29T13:34:34;99296.44;;;8.23;81.75
71126;BME280;58785;55.566;38.058;2023-03-29T13:39:58;99310.63;;;8.14;81.96
71126;BME280;58785;55.566;38.058;2023-03-29T13:45:24;99317.06;;;8.11;81.85
71126;BME280;58785;55.566;38.058;2023-03-29T13:48:03;99310.22;;;8.08;82.34
71126;BME280;58785;55.566;38.058;2023-03-29T13:53:28;99311.38;;;8.06;81.94
71126;BME280;58785;55.566;38.058;2023-03-29T13:55:56;99307.56;;;8.08;81.81
71126;BME280;58785;55.566;38.058;2023-03-29T13:58:33;99311.91;;;8.10;81.98
71126;BME280;58785;55.566;38.058;2023-03-29T14:03:56;99319.44;;;8.14;81.70
71126;BME280;58785;55.566;38.058;2023-03-29T14:06:26;99322.09;;;8.14;82.04
71126;BME280;58785;55.566;38.058;2023-03-29T14:08:54;99322.09;;;8.14;82.05
71126;BME280;58785;55.566;38.058;2023-03-29T14:11:23;99325.25;;;8.18;81.79
71126;BME280;58785;55.566;38.058;2023-03-29T14:13:57;99326.09;;;8.18;81.93
71126;BME280;58785;55.566;38.058;2023-03-29T14:16:32;99325.09;;;8.19;81.76
71126;BME280;58785;55.566;38.058;2023-03-29T14:19:04;99329.97;;;8.24;82.07
71126;BME280;58785;55.566;38.058;2023-03-29T14:21:30;99324.00;;;8.22;81.75
71126;BME280;58785;55.566;38.058;2023-03-29T14:23:58;99327.69;;;8.29;81.53
71126;BME280;58785;55.566;38.058;2023-03-29T14:26:32;99320.41;;;8.31;81.67
71126;BME280;58785;55.566;38.058;2023-03-29T14:29:00;99328.22;;;8.32;81.50
71126;BME280;58785;55.566;38.058;2023-03-29T14:31:35;99313.56;;;8.28;81.52
71126;BME280;58785;55.566;38.058;2023-03-29T14:34:04;99328.53;;;8.29;81.21
71126;BME280;58785;55.566;38.058;2023-03-29T14:36:31;99334.38;;;8.33;81.66
71126;BME280;58785;55.566;38.058;2023-03-29T14:39:11;99337.03;;;8.33;81.76
71126;BME280;58785;55.566;38.058;2023-03-29T14:41:45;99329.50;;;8.28;81.45
71126;BME280;58785;55.566;38.058;2023-03-29T14:44:13;99342.63;;;8.30;81.59
71126;BME280;58785;55.566;38.058;2023-03-29T14:46:40;99340.81;;;8.30;81.41
71126;BME280;58785;55.566;38.058;2023-03-29T14:49:06;99352.28;;;8.31;81.24
71126;BME280;58785;55.566;38.058;2023-03-29T14:51:32;99351.59;;;8.29;81.48
71126;BME280;58785;55.566;38.058;2023-03-29T14:54:00;99366.53;;;8.30;81.44
71126;BME280;58785;55.566;38.058;2023-03-29T14:56:28;99356.06;;;8.28;81.42
71126;BME280;58785;55.566;38.058;2023-03-29T14:58:57;99359.72;;;8.27;81.72
71126;BME280;58785;55.566;38.058;2023-03-29T15:01:24;99364.03;;;8.28;81.61
71126;BME280;58785;55.566;38.058;2023-03-29T15:03:53;99366.84;;;8.27;81.63
71126;BME280;58785;55.566;38.058;2023-03-29T15:06:22;99365.84;;;8.28;82.00
71126;BME280;58785;55.566;38.058;2023-03-29T15:08:48;99361.84;;;8.24;81.95
71126;BME280;58785;55.566;38.058;2023-03-29T15:11:20;99367.00;;;8.25;81.92
71126;BME280;58785;55.566;38.058;2023-03-29T15:13:49;99366.47;;;8.22;81.84
71126;BME280;58785;55.566;38.058;2023-03-29T15:16:18;99376.63;;;8.26;81.99
71126;BME280;58785;55.566;38.058;2023-03-29T15:18:47;99379.44;;;8.25;81.62
71126;BME280;58785;55.566;38.058;2023-03-29T15:21:16;99365.63;;;8.21;82.12
71126;BME280;58785;55.566;38.058;2023-03-29T15:23:52;99366.47;;;8.22;82.20